Time;durP1;ratioP1;P1;durP2;ratioP2;P2;SDS_P1;SDS_P2;PMS_P1;PMS_P2;Temp;Humidity;BMP_temperature;BMP_pressure;BME280_temperature;BME280_humidity;BME280_pressure;Samples;Min_cycle;Max_cycle;Signal;HPM_P1;HPM_P2
2023/02/11 00:01:29;;;;;;;35.45;8.90;;;9.70;99.90;;;10.04;85.18;103303.66;5093819;28;20098;-70
2023/02/11 00:03:59;;;;;;;40.50;9.60;;;9.80;99.90;;;9.79;85.38;103232.22;5075657;28;20044;-69
2023/02/11 00:06:30;;;;;;;37.60;9.25;;;9.80;99.90;;;10.17;84.92;103291.81;5093535;28;20128;-70
2023/02/11 00:08:59;;;;;;;34.92;9.32;;;9.80;99.90;;;10.17;84.63;103296.19;5093488;28;20115;-69
2023/02/11 00:11:29;;;;;;;32.35;8.93;;;9.80;99.90;;;10.17;84.50;103288.28;5093689;28;20106;-69
2023/02/11 00:13:59;;;;;;;34.03;8.70;;;9.80;99.90;;;10.06;84.75;103284.31;5075829;28;20085;-69
2023/02/11 00:16:28;;;;;;;33.85;9.77;;;9.80;99.90;;;10.08;84.67;103285.25;5093337;28;20436;-69
2023/02/11 00:18:57;;;;;;;35.35;9.20;;;9.70;99.90;;;10.01;84.96;103271.81;5093911;28;20047;-70
2023/02/11 00:21:28;;;;;;;38.92;8.85;;;9.70;99.90;;;9.99;84.94;103284.09;5093244;28;20044;-69
2023/02/11 00:23:58;;;;;;;28.48;9.00;;;9.70;99.90;;;9.97;85.21;103271.63;5094082;28;20093;-72
2023/02/11 00:26:31;;;;;;;32.55;9.95;;;9.60;99.90;;;10.00;84.68;103272.69;5075355;28;20052;-72
2023/02/11 00:29:00;;;;;;;37.15;9.20;;;9.70;99.90;;;10.14;84.50;103291.72;5093447;28;20089;-72
2023/02/11 00:31:31;;;;;;;43.53;10.35;;;9.70;99.90;;;10.13;84.24;103286.34;5092912;28;20062;-71
2023/02/11 00:34:00;;;;;;;46.38;10.48;;;9.80;99.90;;;10.16;83.98;103270.63;5075215;28;20044;-71
2023/02/11 00:36:30;;;;;;;38.30;8.70;;;9.80;99.90;;;10.18;83.71;103266.28;5093049;28;20036;-72
2023/02/11 00:39:00;;;;;;;33.78;9.65;;;9.80;99.90;;;10.16;84.02;103267.97;5092951;28;20040;-72
2023/02/11 00:41:28;;;;;;;33.75;9.35;;;9.80;99.90;;;10.17;83.89;103256.53;5093304;28;20048;-72
2023/02/11 00:43:59;;;;;;;36.85;9.88;;;9.80;99.90;;;10.16;83.96;103252.09;5093293;28;20036;-72
2023/02/11 00:46:28;;;;;;;39.22;8.77;;;9.90;99.90;;;10.06;84.17;103245.56;5075178;28;20402;-72
2023/02/11 00:48:57;;;;;;;36.83;9.00;;;9.80;99.90;;;10.10;84.06;103250.16;5093265;28;20036;-72
2023/02/11 00:51:27;;;;;;;27.88;8.80;;;9.80;99.90;;;10.04;84.20;103232.25;5075143;28;20058;-72
2023/02/11 00:53:58;;;;;;;30.27;8.70;;;9.80;99.90;;;10.15;84.33;103245.00;5075320;28;20135;-72
2023/02/11 00:56:27;;;;;;;32.13;9.25;;;9.80;99.90;;;10.19;83.94;103257.50;5093103;28;20052;-71
2023/02/11 00:58:56;;;;;;;29.67;8.55;;;9.80;99.90;;;10.21;83.82;103255.78;5093212;28;20040;-72
2023/02/11 01:01:25;;;;;;;36.40;8.82;;;9.90;99.90;;;10.22;84.07;103249.69;5075022;28;20052;-72
2023/02/11 01:03:54;;;;;;;30.23;8.85;;;9.90;99.90;;;10.26;83.70;103243.66;5093171;28;20055;-72
2023/02/11 01:06:24;;;;;;;28.90;9.52;;;9.90;99.90;;;10.29;83.88;103257.88;5075019;28;20043;-72
2023/02/11 01:08:52;;;;;;;32.25;9.35;;;10.00;99.90;;;10.30;83.96;103267.59;5093380;28;20044;-72
2023/02/11 01:11:23;;;;;;;30.65;9.32;;;9.90;99.90;;;10.23;84.41;103265.59;5092778;28;20064;-72
2023/02/11 01:13:52;;;;;;;37.63;9.52;;;9.90;99.90;;;10.23;84.20;103262.94;5074844;28;20466;-72
2023/02/11 01:16:22;;;;;;;33.08;9.85;;;9.90;99.90;;;10.22;84.17;103242.63;5074876;28;20094;-71
2023/02/11 01:18:52;;;;;;;29.10;9.32;;;9.90;99.90;;;10.22;84.42;103247.03;5074591;28;20067;-72
2023/02/11 01:21:20;;;;;;;29.13;8.63;;;9.90;99.90;;;10.23;84.53;103243.53;5092688;28;20482;-71
2023/02/11 01:23:52;;;;;;;42.47;9.55;;;9.80;99.90;;;10.21;84.59;103240.84;5074711;28;20155;-72
2023/02/11 01:26:22;;;;;;;30.48;9.85;;;9.90;99.90;;;10.25;84.37;103250.69;5091735;28;20051;-72
2023/02/11 01:28:50;;;;;;;31.05;8.95;;;9.90;99.90;;;10.31;84.41;103250.91;5074798;28;20041;-72
2023/02/11 01:31:20;;;;;;;30.17;9.55;;;10.00;99.90;;;10.33;84.02;103259.78;5092643;28;20125;-71
2023/02/11 01:33:49;;;;;;;38.45;9.10;;;10.00;99.90;;;9.65;83.61;103126.88;5092909;28;20036;-72
2023/02/11 01:36:17;;;;;;;29.33;9.20;;;10.00;99.90;;;10.34;83.52;103247.44;5092941;28;20437;-72
2023/02/11 01:38:45;;;;;;;31.60;9.02;;;10.00;99.90;;;10.33;83.79;103245.66;5092892;28;20444;-72
2023/02/11 01:41:14;;;;;;;35.03;9.75;;;10.00;99.90;;;10.29;83.58;103246.38;5074610;28;20143;-72
2023/02/11 01:43:47;;;;;;;32.33;9.57;;;10.00;99.90;;;10.15;83.76;103237.97;5092346;28;20525;-72
2023/02/11 01:46:28;;;;;;;35.00;10.35;;;9.90;99.90;;;10.22;84.00;103247.03;5092339;28;20044;-72
2023/02/11 01:49:04;;;;;;;34.40;10.13;;;9.90;99.90;;;10.23;83.84;103249.72;5074328;28;20055;-71
2023/02/11 01:51:38;;;;;;;31.90;9.80;;;9.80;99.90;;;10.20;83.98;103243.44;5095799;28;20051;-72
2023/02/11 01:59:57;;;;;;;39.15;10.73;;;9.80;99.90;;;10.00;84.32;103225.09;5077302;28;20075;-72
2023/02/11 02:02:34;;;;;;;33.65;10.15;;;9.70;99.90;;;9.94;84.41;103221.31;5095785;28;20077;-72
2023/02/11 02:05:17;;;;;;;34.53;10.77;;;9.70;99.90;;;9.92;84.70;103226.56;5077781;28;20055;-72
2023/02/11 02:07:56;;;;;;;33.40;10.13;;;9.60;99.90;;;9.96;84.82;103232.84;5095770;28;20040;-72
2023/02/11 02:10:27;;;;;;;25.45;9.57;;;9.60;99.90;;;9.83;85.13;103225.31;5095646;28;20044;-72
2023/02/11 02:12:56;;;;;;;28.33;9.60;;;9.60;99.90;;;9.92;84.73;103237.13;5095673;28;20044;-72
2023/02/11 02:15:29;;;;;;;26.85;10.05;;;9.60;99.90;;;9.95;84.57;103231.03;5095358;28;20032;-72
2023/02/11 02:18:05;;;;;;;36.58;10.32;;;9.60;99.90;;;9.46;84.80;103143.81;5095559;28;20078;-72
2023/02/11 02:21:29;;;;;;;26.08;9.90;;;9.60;99.90;;;9.87;84.92;103217.53;5077143;28;20474;-72
2023/02/11 02:24:38;;;;;;;34.22;11.02;;;9.50;99.90;;;9.84;85.00;103230.66;5077510;28;20231;-72
2023/02/11 02:27:32;;;;;;;30.23;10.00;;;9.50;99.90;;;9.10;85.01;103100.16;5092971;28;20484;-72
2023/02/11 02:30:35;;;;;;;30.33;10.52;;;9.50;99.90;;;9.74;85.40;103212.66;5094984;28;20044;-72
2023/02/11 02:33:20;;;;;;;38.28;10.68;;;9.40;99.90;;;9.70;85.59;103204.53;5095162;28;20078;-72
2023/02/11 02:36:04;;;;;;;25.50;10.35;;;9.40;99.90;;;9.80;85.65;103226.09;5094717;28;20383;-72
2023/02/11 02:38:38;;;;;;;37.72;10.80;;;9.40;99.90;;;9.80;85.83;103241.06;5094842;28;20072;-72
2023/02/11 02:41:10;;;;;;;33.75;10.30;;;9.40;99.90;;;9.76;85.86;103236.50;5095080;28;20086;-72
2023/02/11 02:43:44;;;;;;;29.88;10.38;;;9.40;99.90;;;9.70;85.32;103239.81;5076752;28;20139;-72
2023/02/11 02:46:16;;;;;;;36.13;10.65;;;9.40;99.90;;;9.53;85.43;103230.38;5094724;28;20398;-72
2023/02/11 02:48:48;;;;;;;27.70;9.85;;;9.40;99.90;;;9.64;85.72;103244.88;5076786;28;20052;-72
2023/02/11 02:51:34;;;;;;;28.67;9.55;;;9.30;99.90;;;9.01;85.64;103139.44;5094630;28;20067;-72
2023/02/11 02:54:29;;;;;;;32.33;10.45;;;9.30;99.90;;;9.47;85.53;103239.78;5094264;28;20404;-72
2023/02/11 02:57:10;;;;;;;30.13;10.77;;;9.30;99.90;;;9.52;85.49;103244.44;5094243;28;20459;-72
2023/02/11 02:59:57;;;;;;;23.05;10.35;;;9.30;99.90;;;9.54;85.67;103255.06;5094702;28;20135;-72
2023/02/11 03:02:31;;;;;;;31.48;10.13;;;9.30;99.90;;;9.53;85.44;103243.56;5093978;28;20039;-72
2023/02/11 03:05:08;;;;;;;31.63;10.32;;;9.30;99.90;;;9.50;85.37;103239.91;5094095;28;20490;-72
2023/02/11 03:07:44;;;;;;;35.90;10.45;;;9.20;99.90;;;9.44;85.71;103230.03;5094035;28;20048;-72
2023/02/11 03:10:19;;;;;;;27.77;9.70;;;9.20;99.90;;;9.46;85.86;103228.34;5093929;28;20044;-72
2023/02/11 03:12:49;;;;;;;29.13;10.35;;;9.10;99.90;;;9.43;86.14;103220.28;5093734;28;20123;-65
2023/02/11 03:15:19;;;;;;;;;;;9.20;99.90;;;9.60;86.25;103236.78;5094797;28;20071;-65
2023/02/11 03:17:52;;;;;;;32.20;11.25;;;9.20;99.90;;;9.24;86.51;103169.34;5094280;28;19928;-65
2023/02/11 03:20:23;;;;;;;28.65;10.98;;;9.30;99.90;;;8.97;86.65;103129.59;5094627;28;20044;-64
2023/02/11 03:22:55;;;;;;;31.25;10.40;;;9.20;99.90;;;9.06;86.66;103161.63;5094294;28;20093;-65
2023/02/11 03:25:30;;;;;;;37.97;12.07;;;9.20;99.90;;;9.57;86.94;103231.38;5094263;28;20131;-63
2023/02/11 03:28:09;;;;;;;33.42;11.45;;;9.20;99.90;;;9.52;86.54;103225.94;5094207;28;20405;-63
2023/02/11 03:30:45;;;;;;;29.55;11.73;;;9.20;99.90;;;9.23;86.73;103181.69;5094157;28;20101;-63
2023/02/11 03:33:24;;;;;;;32.15;11.60;;;9.10;99.90;;;8.95;86.25;103147.13;5094645;28;20101;-63
2023/02/11 03:35:57;;;;;;;30.13;11.93;;;9.10;99.90;;;9.36;86.38;103206.78;5093976;28;20036;-63
2023/02/11 03:38:30;;;;;;;28.83;11.35;;;9.10;99.90;;;9.32;86.31;103204.88;5075828;28;20048;-63
2023/02/11 03:41:00;;;;;;;28.55;11.00;;;9.10;99.90;;;9.44;86.63;103227.38;5093972;28;20482;-63
2023/02/11 03:43:35;;;;;;;31.92;12.15;;;9.10;99.90;;;9.30;86.65;103202.19;5093900;28;20040;-63
2023/02/11 03:46:05;;;;;;;30.65;12.07;;;9.10;99.90;;;9.45;86.47;103221.25;5093839;28;20035;-63
2023/02/11 03:48:38;;;;;;;30.02;11.93;;;9.10;99.90;;;9.42;86.62;103220.22;5093869;28;20504;-63
2023/02/11 03:51:11;;;;;;;32.15;11.95;;;9.10;99.90;;;8.49;86.59;103054.72;5075958;28;20059;-63
2023/02/11 03:53:43;;;;;;;33.90;11.73;;;9.10;99.90;;;9.33;86.54;103204.03;5093745;28;20047;-63
2023/02/11 03:56:18;;;;;;;26.77;11.00;;;9.00;99.90;;;9.25;87.04;103209.03;5093572;28;20517;-63
2023/02/11 03:58:48;;;;;;;33.20;12.15;;;9.00;99.90;;;7.37;86.71;102858.69;5094176;28;20069;-63
2023/02/11 04:01:16;;;;;;;32.42;11.32;;;8.90;99.90;;;7.88;86.65;103018.78;5075668;28;20143;-63
2023/02/11 04:03:45;;;;;;;30.52;12.18;;;8.90;99.90;;;9.03;87.01;103164.16;5093507;28;20040;-64
2023/02/11 04:06:18;;;;;;;30.27;11.77;;;8.90;99.90;;;9.06;87.02;103177.47;5093506;28;20070;-64
2023/02/11 04:08:46;;;;;;;31.90;11.50;;;9.00;99.90;;;9.25;86.79;103216.97;5093529;28;20040;-63
2023/02/11 04:11:15;;;;;;;31.80;12.15;;;8.90;99.90;;;8.50;86.81;103113.63;5093411;28;20068;-64
2023/02/11 04:13:44;;;;;;;30.65;11.95;;;8.90;99.90;;;9.12;86.87;103217.31;5092796;28;20040;-63
2023/02/11 04:16:13;;;;;;;32.10;12.63;;;8.90;99.90;;;8.92;87.10;103190.13;5093522;28;20044;-64
2023/02/11 04:18:41;;;;;;;31.48;11.95;;;8.80;99.90;;;7.83;87.19;102984.38;5093849;28;20067;-64
2023/02/11 04:21:10;;;;;;;30.90;12.95;;;8.70;99.90;;;9.08;87.78;103212.75;5093375;28;20496;-63
2023/02/11 04:23:40;;;;;;;28.58;13.38;;;8.70;99.90;;;9.01;87.88;103200.16;5075439;28;20051;-64
2023/02/11 04:26:08;;;;;;;37.70;13.15;;;8.80;99.90;;;9.11;87.97;103212.88;5093500;28;20382;-63
2023/02/11 04:28:37;;;;;;;40.25;13.75;;;8.80;99.90;;;8.96;87.93;103184.13;5093731;28;20433;-64
2023/02/11 04:31:06;;;;;;;35.38;13.63;;;8.80;99.90;;;9.11;88.13;103204.97;5093808;28;20085;-63
2023/02/11 04:33:34;;;;;;;38.85;14.60;;;8.80;99.90;;;8.82;88.35;103166.88;5093542;28;20056;-64
2023/02/11 04:36:03;;;;;;;39.70;15.35;;;8.80;99.90;;;8.92;88.72;103168.13;5093252;28;20036;-64
2023/02/11 04:38:35;;;;;;;33.65;14.25;;;8.80;99.90;;;8.75;88.52;103138.41;5093168;28;20036;-64
2023/02/11 04:41:05;;;;;;;33.10;14.38;;;8.80;99.90;;;9.15;88.83;103213.88;5075254;28;20046;-64
2023/02/11 04:43:33;;;;;;;31.83;14.55;;;8.80;99.90;;;9.09;88.82;103204.00;5093346;28;20056;-63
2023/02/11 04:46:02;;;;;;;37.03;15.18;;;8.80;99.90;;;9.01;88.69;103192.22;5093352;28;20676;-63
2023/02/11 04:48:30;;;;;;;36.47;15.45;;;8.80;99.90;;;8.88;89.10;103168.84;5092932;28;20515;-63
2023/02/11 04:50:59;;;;;;;33.42;15.57;;;8.80;99.90;;;9.13;89.08;103210.28;5093227;28;20046;-63
2023/02/11 04:53:27;;;;;;;39.88;16.55;;;8.80;99.90;;;8.62;89.18;103125.59;5093054;28;20066;-63
2023/02/11 04:55:56;;;;;;;39.78;16.33;;;8.80;99.90;;;9.13;88.98;103216.47;5092884;28;20512;-63
2023/02/11 04:58:26;;;;;;;38.03;16.02;;;8.80;99.90;;;9.09;88.99;103212.81;5075059;28;20044;-63
2023/02/11 05:00:54;;;;;;;39.45;17.42;;;8.80;99.90;;;9.07;89.35;103200.41;5092853;28;20044;-63
2023/02/11 05:03:23;;;;;;;39.13;18.15;;;8.80;99.90;;;8.87;89.56;103164.38;5092780;28;20470;-63
2023/02/11 05:05:51;;;;;;;39.28;17.77;;;8.80;99.90;;;8.57;89.81;103113.06;5093440;28;20046;-63
2023/02/11 05:08:20;;;;;;;45.15;19.65;;;8.90;99.90;;;9.12;90.23;103196.19;5092992;28;20048;-63
2023/02/11 05:10:48;;;;;;;44.42;19.33;;;8.90;99.90;;;9.05;90.55;103160.75;5092754;28;20078;-63
2023/02/11 05:13:17;;;;;;;41.65;20.90;;;8.80;99.90;;;9.23;91.12;103191.31;5092786;28;20036;-64
2023/02/11 05:15:49;;;;;;;46.15;21.63;;;8.90;99.90;;;9.21;91.04;103187.72;5093210;28;20097;-63
2023/02/11 05:18:18;;;;;;;42.55;22.58;;;8.90;99.90;;;9.38;91.35;103197.19;5092811;28;20485;-63
2023/02/11 05:20:46;;;;;;;39.83;21.98;;;9.00;99.90;;;8.78;90.87;103092.78;5092635;28;20063;-64
2023/02/11 05:23:15;;;;;;;43.72;22.05;;;9.10;99.90;;;8.97;90.46;103126.97;5074848;28;20052;-63
2023/02/11 05:25:43;;;;;;;45.20;21.00;;;9.10;99.90;;;9.38;90.72;103202.47;5078819;28;20093;-63
2023/02/11 05:28:12;;;;;;;46.75;21.05;;;9.10;99.90;;;9.12;90.24;103176.81;5096434;28;20040;-63
2023/02/11 05:30:40;;;;;;;38.15;19.27;;;9.00;99.90;;;9.25;90.32;103224.88;5096705;28;20052;-63
2023/02/11 05:33:10;;;;;;;42.15;19.88;;;9.00;99.90;;;7.79;90.01;102971.91;5096817;28;20084;-63
2023/02/11 05:35:39;;;;;;;42.53;20.15;;;8.90;99.90;;;9.28;90.17;103227.63;5097089;28;20129;-63
2023/02/11 05:38:08;;;;;;;47.45;20.73;;;9.00;99.90;;;9.27;90.27;103223.16;5078137;28;20051;-64
2023/02/11 05:40:36;;;;;;;38.72;21.08;;;9.00;99.90;;;9.21;90.23;103215.03;5096614;28;20051;-63
2023/02/11 05:43:04;;;;;;;49.70;21.73;;;8.90;99.90;;;9.27;90.20;103220.53;5096153;28;20044;-64
2023/02/11 05:45:33;;;;;;;44.53;21.70;;;9.00;99.90;;;8.50;90.57;103082.91;5096145;28;20434;-64
2023/02/11 05:48:02;;;;;;;44.47;22.05;;;9.00;99.90;;;9.02;90.26;103191.38;5096383;28;20043;-64
2023/02/11 05:50:32;;;;;;;43.70;23.48;;;9.00;99.90;;;9.44;90.45;103232.66;5096053;28;20036;-64
2023/02/11 05:53:00;;;;;;;43.97;23.27;;;9.10;99.90;;;9.24;90.87;103198.38;5096583;28;20448;-64
2023/02/11 05:55:29;;;;;;;41.17;23.90;;;9.20;99.90;;;9.41;91.88;103232.53;5078149;28;20510;-65
2023/02/11 05:57:57;;;;;;;53.63;26.02;;;9.10;99.90;;;9.49;91.81;103232.81;5077905;28;20093;-64
2023/02/11 06:00:26;;;;;;;52.63;25.60;;;9.20;99.90;;;9.54;92.21;103228.63;5095912;28;20114;-65
2023/02/11 06:02:55;;;;;;;54.10;26.42;;;9.20;99.90;;;9.63;92.04;103227.22;5078033;28;20405;-64
2023/02/11 06:05:26;;;;;;;45.92;26.50;;;9.30;99.90;;;9.32;92.21;103179.38;5077907;28;20440;-64
2023/02/11 06:07:59;;;;;;;52.47;26.85;;;9.30;99.90;;;9.64;92.15;103267.78;5095790;28;20058;-64
2023/02/11 06:10:28;;;;;;;45.47;26.13;;;9.30;99.90;;;9.43;92.36;103196.50;5077848;28;20423;-64
2023/02/11 06:12:56;;;;;;;52.25;26.67;;;9.30;99.90;;;9.68;92.13;103220.34;5095993;28;20101;-64
2023/02/11 06:15:25;;;;;;;50.65;26.38;;;9.40;99.90;;;9.60;91.52;103210.38;5095588;28;20119;-64
2023/02/11 06:17:57;;;;;;;51.28;26.52;;;9.40;99.90;;;9.55;91.50;103196.97;5095405;28;20040;-64
2023/02/11 06:20:25;;;;;;;48.78;26.67;;;9.40;99.90;;;9.76;91.27;103220.63;5095774;28;20127;-64
2023/02/11 06:22:54;;;;;;;45.67;25.90;;;9.50;99.90;;;9.62;90.93;103184.91;5095436;28;20183;-64
2023/02/11 06:25:24;;;;;;;44.88;24.95;;;9.50;99.90;;;9.78;90.47;103227.78;5077594;28;20404;-65
2023/02/11 06:27:52;;;;;;;47.58;26.23;;;9.50;99.90;;;9.07;90.67;103160.78;5095449;28;20055;-64
2023/02/11 06:30:21;;;;;;;45.20;25.73;;;9.50;99.90;;;9.63;90.79;103199.91;5095281;28;20397;-64
2023/02/11 06:32:49;;;;;;;43.47;25.23;;;9.50;99.90;;;9.79;91.19;103221.63;5095017;28;20455;-64
2023/02/11 06:35:18;;;;;;;44.83;25.58;;;9.50;99.90;;;9.57;91.12;103202.31;5094673;28;20044;-64
2023/02/11 06:37:48;;;;;;;45.47;26.15;;;9.40;99.90;;;9.77;91.11;103236.56;5095268;28;20068;-64
2023/02/11 06:40:17;;;;;;;47.40;26.00;;;9.50;99.90;;;9.68;90.94;103207.16;5095280;28;20040;-64
2023/02/11 06:42:47;;;;;;;40.47;24.90;;;9.50;99.90;;;9.27;90.97;103209.97;5095265;28;20063;-64
2023/02/11 06:45:15;;;;;;;42.83;26.23;;;9.60;99.90;;;9.85;90.49;103234.22;5095453;28;20044;-64
2023/02/11 06:47:44;;;;;;;40.92;25.30;;;9.60;99.90;;;9.65;90.54;103201.75;5095039;28;20044;-64
2023/02/11 06:50:14;;;;;;;43.28;25.98;;;9.60;99.90;;;9.27;90.56;103140.44;5094922;28;20086;-64
2023/02/11 06:52:43;;;;;;;44.67;25.67;;;9.60;99.90;;;9.85;90.27;103244.78;5095011;28;20044;-64
2023/02/11 06:55:11;;;;;;;43.17;24.95;;;9.60;99.90;;;9.68;90.12;103228.28;5095366;28;20040;-64
2023/02/11 06:57:40;;;;;;;41.45;25.40;;;9.60;99.90;;;9.82;90.34;103242.91;5094970;28;20040;-64
2023/02/11 07:00:12;;;;;;;45.55;25.92;;;9.60;99.90;;;9.51;90.06;103200.34;5094713;28;20043;-64
2023/02/11 07:02:42;;;;;;;40.40;24.88;;;9.50;99.90;;;9.74;89.61;103249.66;5094704;28;20044;-64
2023/02/11 07:05:12;;;;;;;42.72;24.17;;;9.50;99.90;;;9.60;89.53;103242.06;5094643;28;20048;-64
2023/02/11 07:07:40;;;;;;;46.10;25.67;;;9.40;99.90;;;9.47;89.54;103216.91;5094998;28;20052;-64
2023/02/11 07:10:09;;;;;;;40.05;23.73;;;9.40;99.90;;;9.59;89.53;103242.91;5095144;28;20046;-64
2023/02/11 07:12:38;;;;;;;43.58;24.35;;;9.40;99.90;;;9.50;89.38;103224.97;5094662;28;20064;-64
2023/02/11 07:15:07;;;;;;;41.28;24.60;;;9.40;99.90;;;9.65;89.36;103246.69;5094673;28;20052;-64
2023/02/11 07:17:37;;;;;;;34.13;23.27;;;9.40;99.90;;;9.65;89.46;103253.69;5094753;28;20165;-64
2023/02/11 07:20:07;;;;;;;41.20;24.95;;;9.40;99.90;;;9.34;89.23;103200.53;5094677;28;20036;-64
2023/02/11 07:22:36;;;;;;;40.45;23.77;;;9.40;99.90;;;9.68;89.67;103265.28;5094417;28;20047;-64
2023/02/11 07:25:08;;;;;;;44.45;26.02;;;9.40;99.90;;;9.69;89.70;103264.47;5076279;28;20090;-64
2023/02/11 07:27:36;;;;;;;43.95;25.63;;;9.50;99.90;;;9.42;89.74;103230.81;5076316;28;20051;-64
2023/02/11 07:30:06;;;;;;;44.22;25.38;;;9.50;99.90;;;8.69;89.46;103106.50;5094111;28;20089;-63
2023/02/11 07:32:36;;;;;;;42.08;25.30;;;9.50;99.90;;;9.72;90.35;103267.19;5075968;28;20495;-64
2023/02/11 07:35:06;;;;;;;39.38;24.90;;;9.50;99.90;;;9.56;90.08;103225.19;5093953;28;20127;-64
2023/02/11 07:37:35;;;;;;;42.90;24.63;;;9.50;99.90;;;9.58;90.60;103226.13;5093909;28;20061;-64
2023/02/11 07:40:04;;;;;;;44.38;25.25;;;9.50;99.90;;;9.51;90.99;103210.91;5094112;28;20450;-64
2023/02/11 07:42:35;;;;;;;42.70;26.88;;;9.60;99.90;;;9.94;90.73;103282.13;5093866;28;20044;-64
2023/02/11 07:45:03;;;;;;;34.38;23.38;;;9.60;99.90;;;9.87;90.31;103278.34;5094122;28;20093;-65
2023/02/11 07:47:38;;;;;;;33.55;22.65;;;9.60;99.90;;;9.89;90.33;103274.00;5092852;28;20043;-64
2023/02/11 07:50:08;;;;;;;35.53;23.15;;;9.60;99.90;;;9.87;89.49;103278.34;5093595;28;20048;-64
2023/02/11 07:52:39;;;;;;;29.27;22.08;;;9.70;99.90;;;9.67;89.71;103255.56;5093681;28;20085;-64
2023/02/11 07:55:09;;;;;;;38.70;24.23;;;9.60;99.90;;;9.82;89.94;103339.81;5093653;28;20040;-64
2023/02/11 07:57:37;;;;;;;38.63;25.77;;;9.60;99.90;;;9.91;90.03;103274.97;5093867;28;20049;-63
2023/02/11 08:00:14;;;;;;;42.13;26.17;;;9.70;99.90;;;9.86;90.54;103262.44;5093862;28;20051;-63
2023/02/11 08:02:44;;;;;;;45.85;27.90;;;9.80;99.90;;;10.20;90.77;103285.75;5075805;28;20048;-63
2023/02/11 08:05:13;;;;;;;38.17;25.42;;;9.90;99.90;;;10.14;91.19;103251.16;5093758;28;20055;-63
2023/02/11 08:07:42;;;;;;;38.65;27.13;;;10.10;99.90;;;9.98;91.64;103210.00;5093345;28;20455;-64
2023/02/11 08:10:10;;;;;;;43.03;25.83;;;10.10;99.90;;;10.39;92.40;103267.94;5093634;28;20040;-62
2023/02/11 08:12:39;;;;;;;41.75;25.80;;;10.20;99.90;;;10.26;93.71;103284.22;5093378;28;20039;-63
2023/02/11 08:15:09;;;;;;;36.28;24.90;;;10.10;99.90;;;10.18;94.34;103275.09;5093346;28;20081;-64
2023/02/11 08:17:38;;;;;;;49.35;25.83;;;10.00;99.90;;;10.38;94.69;103291.66;5093452;28;20036;-63
2023/02/11 08:20:08;;;;;;;41.83;25.27;;;10.10;99.90;;;10.07;94.90;103228.81;5093447;28;20119;-63
2023/02/11 08:22:37;;;;;;;38.55;25.17;;;10.10;99.90;;;10.27;94.87;103286.03;5074923;28;20052;-63
2023/02/11 08:25:08;;;;;;;35.28;25.30;;;10.20;99.90;;;10.24;95.20;103264.72;5075298;28;20531;-63
2023/02/11 08:27:37;;;;;;;36.33;23.23;;;10.20;99.90;;;10.38;95.82;103300.53;5075195;28;20074;-63
2023/02/11 08:30:07;;;;;;;36.22;24.15;;;10.20;99.90;;;10.44;95.64;103307.78;5093348;28;20123;-63
2023/02/11 08:32:36;;;;;;;37.50;24.45;;;10.20;99.90;;;10.57;95.52;103302.06;5093191;28;20056;-63
2023/02/11 08:35:12;;;;;;;36.58;22.20;;;10.30;99.90;;;10.46;95.61;103298.13;5075175;28;20048;-63
2023/02/11 08:37:40;;;;;;;36.30;22.70;;;10.20;99.90;;;10.51;95.59;103305.38;5075176;28;20048;-63
2023/02/11 08:40:15;;;;;;;36.33;23.58;;;10.30;99.90;;;10.36;95.75;103282.78;5093400;28;20035;-63
2023/02/11 08:42:45;;;;;;;36.75;23.38;;;10.30;99.90;;;10.54;95.88;103315.19;5093211;28;20048;-63
2023/02/11 08:45:13;;;;;;;35.42;22.27;;;10.30;99.90;;;10.48;96.41;103325.56;5093299;28;20094;-63
2023/02/11 08:47:45;;;;;;;31.92;22.30;;;10.20;99.90;;;10.08;95.92;103233.28;5092921;28;20602;-63
2023/02/11 08:50:15;;;;;;;31.83;21.48;;;10.30;99.90;;;10.51;96.15;103308.03;5093163;28;20044;-63
2023/02/11 08:52:43;;;;;;;36.25;21.38;;;10.40;99.90;;;10.54;95.78;103294.94;5093518;28;20036;-63
2023/02/11 08:55:12;;;;;;;29.95;21.15;;;10.50;99.90;;;10.49;95.79;103303.56;5092785;28;20524;-63
2023/02/11 08:57:40;;;;;;;31.92;20.23;;;10.50;99.90;;;10.74;95.64;103343.25;5092647;28;20046;-63
2023/02/11 09:00:11;;;;;;;33.55;19.75;;;10.50;99.90;;;10.80;95.24;103336.41;5096656;28;20510;-63
2023/02/11 09:02:42;;;;;;;;;;;10.60;99.90;;;10.79;95.12;103333.72;5097770;28;20097;-63
2023/02/11 09:05:15;;;;;;;28.55;18.33;;;10.60;99.90;;;10.63;94.95;103331.38;5096922;28;19950;-62
2023/02/11 09:07:43;;;;;;;28.10;18.02;;;10.50;99.90;;;10.27;95.10;103275.44;5096950;28;20068;-63
2023/02/11 09:10:12;;;;;;;30.05;18.73;;;10.40;99.90;;;10.29;94.72;103280.78;5097106;28;20096;-66
2023/02/11 09:12:40;;;;;;;26.10;18.55;;;10.40;99.90;;;10.46;95.20;103335.19;5097038;28;20055;-65
2023/02/11 09:15:10;;;;;;;28.58;18.15;;;10.40;99.90;;;10.15;94.67;103261.78;5078783;28;20051;-65
2023/02/11 09:17:38;;;;;;;31.35;19.25;;;10.40;99.90;;;10.70;94.82;103339.59;5096497;28;20131;-65
2023/02/11 09:20:08;;;;;;;47.70;19.52;;;10.40;99.90;;;10.59;94.28;103297.72;5096772;28;20044;-65
2023/02/11 09:22:41;;;;;;;30.48;18.02;;;10.50;99.90;;;10.66;93.56;103315.63;5078760;28;20102;-65
2023/02/11 09:25:10;;;;;;;27.05;18.02;;;10.60;99.90;;;10.83;93.52;103339.19;5096712;28;20047;-64
2023/02/11 09:27:39;;;;;;;26.30;17.40;;;10.60;99.90;;;10.80;93.71;103325.81;5078783;28;20082;-62
2023/02/11 09:30:09;;;;;;;24.90;16.73;;;10.60;99.90;;;10.63;92.85;103336.69;5078366;28;20405;-61
2023/02/11 09:32:37;;;;;;;25.20;16.80;;;10.60;99.90;;;10.72;93.02;103322.00;5077849;28;20145;-61
2023/02/11 09:35:07;;;;;;;22.45;16.42;;;10.60;99.90;;;10.83;92.22;103343.56;5096879;28;20044;-62
2023/02/11 09:37:39;;;;;;;23.27;16.27;;;10.60;99.90;;;10.92;91.86;103343.88;5096340;28;20040;-61
2023/02/11 09:40:10;;;;;;;23.70;17.23;;;10.70;99.90;;;10.59;91.40;103297.72;5078230;28;20465;-61
2023/02/11 09:42:48;;;;;;;25.45;15.93;;;10.70;99.90;;;10.96;90.89;103350.16;5096030;28;20507;-64
2023/02/11 09:45:20;;;;;;;19.10;14.57;;;10.80;99.90;;;11.00;90.54;103349.41;5096178;28;20044;-64
2023/02/11 09:47:53;;;;;;;25.63;15.90;;;10.80;99.90;;;11.06;90.61;103361.13;5096136;28;20474;-64
2023/02/11 09:50:30;;;;;;;30.45;16.35;;;10.80;99.90;;;11.12;90.12;103353.41;5096317;28;20044;-64
2023/02/11 09:53:04;;;;;;;25.00;16.52;;;10.90;99.90;;;10.99;89.79;103337.03;5078329;28;20059;-62
2023/02/11 09:55:38;;;;;;;25.30;16.25;;;10.90;99.90;;;11.20;89.83;103348.34;5095878;28;20475;-62
2023/02/11 09:58:13;;;;;;;23.35;15.65;;;11.10;99.90;;;11.16;89.59;103334.09;5095816;28;20119;-62
2023/02/11 10:00:47;;;;;;;21.65;16.70;;;11.10;99.90;;;11.35;89.45;103357.69;5095929;28;20458;-63
2023/02/11 10:03:44;;;;;;;24.33;17.80;;;11.10;99.90;;;11.21;89.64;103361.63;5077839;28;20138;-62
2023/02/11 10:06:43;;;;;;;25.17;18.05;;;11.00;99.90;;;11.26;89.44;103352.09;5077806;28;20118;-63
2023/02/11 10:09:31;;;;;;;26.02;17.55;;;11.10;99.90;;;11.27;89.83;103359.19;5093896;28;20056;-62
2023/02/11 10:12:18;;;;;;;23.35;17.27;;;11.00;99.90;;;11.13;89.69;103365.78;5094838;28;20448;-65
2023/02/11 10:15:06;;;;;;;24.35;17.85;;;10.90;99.90;;;11.03;89.80;103363.69;5095968;28;20048;-65
2023/02/11 10:17:45;;;;;;;23.05;16.70;;;11.00;99.90;;;11.30;89.69;103371.66;5095639;28;20036;-65
2023/02/11 10:20:26;;;;;;;27.50;18.08;;;11.00;99.90;;;10.83;89.01;103277.38;5077502;28;20396;-64
2023/02/11 10:22:59;;;;;;;24.60;18.00;;;11.20;99.90;;;11.32;89.08;103393.78;5095536;28;20040;-64
2023/02/11 10:25:37;;;;;;;24.17;16.75;;;11.20;99.90;;;11.20;89.39;103383.69;5095468;28;20139;-63
2023/02/11 10:28:16;;;;;;;23.95;18.40;;;11.10;99.90;;;11.35;89.04;103393.88;5077457;28;20560;-61
2023/02/11 10:30:57;;;;;;;30.90;19.20;;;11.20;99.90;;;11.06;89.46;103370.81;5078310;28;20114;-61
2023/02/11 10:33:31;;;;;;;23.50;17.98;;;11.00;99.90;;;11.35;89.52;103407.13;5095462;28;20059;-62
2023/02/11 10:36:00;;;;;;;27.98;18.90;;;11.00;99.90;;;11.22;89.54;103389.03;5094903;28;20520;-61